LTFJ/SAW METAR and TAF weather

Enter ICAO airport designator
Station Type Date Time Source
LTFJ METAR 2019/06/16 20:50 UTC NOAA

LTFJ 162050Z 03008KT 9999 SCT009 23/22 Q1010 NOSIG


Station Type Date Time Source
LTFJ Decoded METAR 2019/06/16 20:50 UTC NOAA

Istanbul / Sabiha Gokcen, Turkey (LTFJ) 40-53-55N 029-18-33E
Jun 16, 2019 - 04:50 PM EDT / 2019.06.16 2050 UTC
Wind: from the NNE (030 degrees) at 9 MPH (8 KT):0
Visibility: greater than 7 mile(s):0
Sky conditions: partly cloudy
Temperature: 73 F (23 C)
Dew Point: 71 F (22 C)
Relative Humidity: 94%
Pressure (altimeter): 29.83 in. Hg (1010 hPa)
ob: LTFJ 162050Z 03008KT 9999 SCT009 23/22 Q1010 NOSIG
cycle: 21

Station Type Date Time Source
LTFJ TAF 2019/06/16 18:03 UTC NOAA

TAF LTFJ 161640Z 1618/1718 03013KT 9999 SCT035 PROB40
TEMPO 1700/1704 -TSRA FEW020CB BKN030

Example: see airport list